Time;durP1;ratioP1;P1;durP2;ratioP2;P2;SDS_P1;SDS_P2;PMS_P1;PMS_P2;Temp;Humidity;BMP_temperature;BMP_pressure;BME280_temperature;BME280_humidity;BME280_pressure;Samples;Min_cycle;Max_cycle;Signal;HPM_P1;HPM_P2
2024/01/25 00:02:04;;;;;;;3.38;0.50;;;10.70;99.90;;;;;;5083934;28;20461;-66
2024/01/25 00:04:31;;;;;;;4.13;0.50;;;10.70;99.90;;;;;;5081732;28;20439;-68
2024/01/25 00:06:58;;;;;;;5.40;0.50;;;10.70;99.90;;;;;;5083569;28;20437;-66
2024/01/25 00:09:25;;;;;;;2.42;0.40;;;10.70;99.90;;;;;;5088467;28;20487;-66
2024/01/25 00:11:52;;;;;;;3.75;0.47;;;10.60;99.90;;;;;;5087873;28;21086;-65
2024/01/25 00:14:21;;;;;;;3.78;0.40;;;10.70;99.90;;;;;;5088498;28;20839;-66
2024/01/25 00:16:48;;;;;;;4.00;0.60;;;10.60;99.90;;;;;;5085053;28;20510;-67
2024/01/25 00:19:15;;;;;;;2.40;0.40;;;10.70;1.00;;;;;;5083208;28;20481;-66
2024/01/25 00:21:43;;;;;;;3.80;0.50;;;10.70;1.00;;;;;;5090990;28;20494;-66
2024/01/25 00:24:12;;;;;;;4.43;0.60;;;10.70;1.00;;;;;;5089579;28;20421;-66
2024/01/25 00:26:39;;;;;;;3.30;0.50;;;10.80;1.00;;;;;;5091626;28;20928;-66
2024/01/25 00:29:06;;;;;;;3.10;0.50;;;10.70;1.00;;;;;;5086001;28;20432;-66
2024/01/25 00:31:35;;;;;;;1.92;0.40;;;10.70;1.00;;;;;;5089279;28;20551;-66
2024/01/25 00:34:03;;;;;;;3.03;0.50;;;10.90;1.00;;;;;;5082915;28;20445;-67
2024/01/25 00:36:30;;;;;;;2.05;0.50;;;10.90;1.00;;;;;;5091936;28;20445;-66
2024/01/25 00:38:58;;;;;;;3.80;0.50;;;10.80;1.00;;;;;;5094193;28;20441;-66
2024/01/25 00:41:25;;;;;;;5.57;0.55;;;10.80;14.10;;;;;;5084904;28;20870;-66
2024/01/25 00:43:53;;;;;;;2.80;0.40;;;10.80;99.90;;;;;;5084270;28;20437;-66
2024/01/25 00:46:21;;;;;;;4.45;0.50;;;10.70;99.90;;;;;;5079642;28;20445;-66
2024/01/25 00:48:50;;;;;;;4.90;0.50;;;10.70;1.00;;;;;;5089907;28;20446;-66
2024/01/25 00:51:21;;;;;;;1.50;0.40;;;10.70;1.00;;;;;;5072925;28;20440;-66
2024/01/25 00:53:49;;;;;;;3.22;0.50;;;10.80;1.00;;;;;;5084194;28;20430;-66
2024/01/25 00:56:16;;;;;;;3.60;0.60;;;10.80;1.00;;;;;;5094011;28;20413;-66
2024/01/25 00:58:44;;;;;;;2.80;0.40;;;10.80;1.00;;;;;;5088818;28;20448;-66
2024/01/25 01:01:12;;;;;;;4.93;0.60;;;10.70;16.50;;;;;;5093279;28;20452;-66
2024/01/25 01:03:39;;;;;;;2.35;0.40;;;10.80;99.90;;;;;;5086641;28;20450;-66
2024/01/25 01:06:09;;;;;;;3.60;0.50;;;10.90;99.90;;;;;;5084508;28;20499;-66
2024/01/25 01:08:37;;;;;;;5.50;0.50;;;10.80;1.00;;;;;;5090856;28;20867;-67
2024/01/25 01:11:05;;;;;;;3.50;0.47;;;10.90;1.00;;;;;;5087714;28;20460;-67
2024/01/25 01:13:32;;;;;;;3.80;0.50;;;10.80;1.00;;;;;;5091877;28;20421;-66
2024/01/25 01:15:59;;;;;;;2.63;0.50;;;10.80;1.00;;;;;;5088706;28;20445;-67
2024/01/25 01:18:26;;;;;;;3.70;0.40;;;10.80;99.90;;;;;;5094064;28;20430;-65
2024/01/25 01:20:53;;;;;;;3.03;0.50;;;10.80;99.90;;;;;;5090326;28;20429;-66
2024/01/25 01:23:21;;;;;;;2.65;0.50;;;10.80;99.90;;;;;;5095329;28;20717;-67
2024/01/25 01:25:48;;;;;;;3.88;0.60;;;10.80;99.90;;;;;;5084692;28;20462;-65
2024/01/25 01:28:15;;;;;;;1.50;0.40;;;10.70;99.90;;;;;;5084951;28;20539;-65
2024/01/25 01:30:43;;;;;;;2.55;0.60;;;10.70;99.90;;;;;;5094389;28;20829;-66
2024/01/25 01:33:10;;;;;;;3.80;0.40;;;10.80;1.00;;;;;;5089507;28;20819;-66
2024/01/25 01:35:37;;;;;;;1.70;0.40;;;10.80;1.00;;;;;;5093726;28;20433;-65
2024/01/25 01:38:04;;;;;;;2.28;0.50;;;10.90;1.00;;;;;;5097749;28;20855;-65
2024/01/25 01:40:32;;;;;;;2.95;0.50;;;10.90;1.00;;;;;;5087532;28;20443;-66
2024/01/25 01:43:03;;;;;;;3.15;0.55;;;10.80;1.00;;;;;;5085862;28;20731;-66
2024/01/25 01:45:30;;;;;;;2.40;0.40;;;10.80;5.10;;;;;;5084160;28;20435;-66
2024/01/25 01:47:57;;;;;;;1.85;0.50;;;10.70;99.90;;;;;;5095683;28;20437;-65
2024/01/25 01:50:25;;;;;;;3.05;0.50;;;10.70;20.60;;;;;;5094822;28;20470;-65
2024/01/25 01:52:53;;;;;;;2.67;0.53;;;10.70;1.00;;;;;;5085644;28;20714;-65
2024/01/25 01:55:23;;;;;;;2.80;0.40;;;10.60;87.10;;;;;;5095079;28;20727;-65
2024/01/25 01:57:51;;;;;;;2.90;0.60;;;10.60;7.00;;;;;;5094861;28;20433;-66
2024/01/25 02:00:19;;;;;;;1.55;0.50;;;10.70;54.50;;;;;;5091461;28;20440;-65
2024/01/25 02:02:46;;;;;;;4.75;0.50;;;10.70;1.00;;;;;;5095328;28;20444;-64
2024/01/25 02:05:13;;;;;;;4.30;0.40;;;10.80;99.90;;;;;;5096371;28;20444;-65
2024/01/25 02:07:41;;;;;;;2.42;0.45;;;10.70;99.90;;;;;;5091940;28;20831;-65
2024/01/25 02:10:09;;;;;;;4.38;0.47;;;10.70;99.90;;;;;;5090045;28;20435;-66
2024/01/25 02:12:36;;;;;;;2.73;0.40;;;10.70;99.90;;;;;;5091076;28;20440;-65
2024/01/25 02:15:06;;;;;;;1.83;0.40;;;10.60;99.90;;;;;;5093409;28;20495;-65
2024/01/25 02:17:33;;;;;;;2.30;0.50;;;10.60;99.90;;;;;;5092478;28;20445;-66
2024/01/25 02:20:00;;;;;;;2.78;0.40;;;10.70;99.90;;;;;;5097586;28;20438;-65
2024/01/25 02:22:29;;;;;;;2.78;0.40;;;10.70;99.90;;;;;;5097429;28;20473;-66
2024/01/25 02:24:56;;;;;;;1.10;0.43;;;10.60;97.50;;;;;;5094142;28;20859;-65
2024/01/25 02:27:23;;;;;;;3.10;0.50;;;10.60;99.90;;;;;;5084555;28;20443;-66
2024/01/25 02:29:50;;;;;;;3.00;0.40;;;10.50;99.90;;;;;;5091792;28;20441;-65
2024/01/25 02:32:17;;;;;;;2.63;0.43;;;10.60;99.90;;;;;;5084072;28;20441;-65
2024/01/25 02:34:44;;;;;;;3.33;0.40;;;10.60;56.70;;;;;;5092701;28;20438;-65
2024/01/25 02:37:12;;;;;;;1.30;0.40;;;10.60;99.90;;;;;;5096064;28;20506;-65
2024/01/25 02:39:40;;;;;;;2.43;0.40;;;10.50;40.30;;;;;;5094560;28;20433;-65
2024/01/25 02:42:07;;;;;;;3.20;0.40;;;10.50;27.30;;;;;;5079767;28;20438;-65
2024/01/25 02:44:34;;;;;;;2.20;0.40;;;10.70;79.60;;;;;;5095936;28;20440;-65
2024/01/25 02:47:02;;;;;;;2.83;0.30;;;10.60;1.00;;;;;;5087253;28;20880;-66
2024/01/25 02:49:29;;;;;;;1.43;0.50;;;10.60;1.00;;;;;;5088001;28;20524;-66
2024/01/25 02:51:56;;;;;;;2.75;0.40;;;10.70;48.00;;;;;;5095709;28;20437;-65
2024/01/25 02:54:23;;;;;;;2.33;0.40;;;10.70;1.00;;;;;;5088080;28;20769;-66
2024/01/25 02:56:51;;;;;;;1.88;0.50;;;10.60;1.00;;;;;;5091182;28;20441;-65
2024/01/25 02:59:18;;;;;;;3.20;0.50;;;10.50;1.00;;;;;;5088003;28;20437;-65
2024/01/25 03:01:46;;;;;;;1.93;0.50;;;10.50;46.70;;;;;;5095690;28;20487;-65
2024/01/25 03:04:13;;;;;;;4.55;0.50;;;10.60;24.30;;;;;;5090240;28;20858;-65
2024/01/25 03:06:40;;;;;;;5.65;0.60;;;10.60;99.90;;;;;;5091373;28;20508;-65
2024/01/25 03:09:07;;;;;;;3.13;0.50;;;10.50;19.00;;;;;;5094832;28;20523;-65
2024/01/25 03:11:34;;;;;;;2.28;0.50;;;10.60;1.00;;;;;;5082271;28;20510;-65
2024/01/25 03:14:03;;;;;;;2.60;0.40;;;10.60;1.00;;;;;;5093096;28;20457;-66
2024/01/25 03:16:30;;;;;;;4.13;0.55;;;10.60;1.00;;;;;;5087586;28;20437;-66
2024/01/25 03:18:57;;;;;;;4.20;0.40;;;10.60;1.00;;;;;;5089851;28;20445;-66
2024/01/25 03:21:24;;;;;;;2.10;0.40;;;10.50;1.00;;;;;;5094153;28;20444;-65
2024/01/25 03:23:52;;;;;;;2.20;0.40;;;10.50;76.70;;;;;;5097192;28;20421;-65
2024/01/25 03:26:19;;;;;;;3.40;0.40;;;10.50;1.00;;;;;;5092783;28;20434;-65
2024/01/25 03:28:46;;;;;;;3.67;0.50;;;10.50;99.90;;;;;;5088634;28;20863;-65
2024/01/25 03:31:14;;;;;;;1.88;0.40;;;10.50;99.90;;;;;;5094642;28;20455;-66
2024/01/25 03:33:41;;;;;;;2.78;0.50;;;10.50;99.90;;;;;;5096418;28;20422;-66
2024/01/25 03:36:09;;;;;;;1.95;0.40;;;10.40;99.90;;;;;;5090699;28;20890;-66
2024/01/25 03:38:36;;;;;;;3.05;0.50;;;10.40;1.00;;;;;;5093405;28;20445;-65
2024/01/25 03:41:03;;;;;;;3.20;0.52;;;10.40;99.90;;;;;;5094655;28;20456;-66
2024/01/25 03:43:30;;;;;;;1.77;0.30;;;10.30;1.00;;;;;;5092897;28;20442;-67
2024/01/25 03:45:57;;;;;;;2.50;0.50;;;10.40;1.00;;;;;;5089243;28;20724;-65
2024/01/25 03:48:25;;;;;;;4.73;0.40;;;10.40;1.00;;;;;;5093050;28;20438;-66
2024/01/25 03:50:56;;;;;;;4.47;0.40;;;10.40;1.00;;;;;;5090610;28;20429;-66
2024/01/25 03:53:23;;;;;;;2.58;0.40;;;10.30;50.50;;;;;;5080913;28;20490;-66
2024/01/25 03:55:50;;;;;;;1.40;0.50;;;10.30;99.90;;;;;;5092828;28;20433;-65
2024/01/25 03:58:19;;;;;;;3.35;0.55;;;10.30;1.00;;;;;;5085912;28;20430;-67
2024/01/25 04:00:46;;;;;;;4.63;0.40;;;10.30;1.00;;;;;;5081946;28;20528;-67
2024/01/25 04:03:13;;;;;;;1.80;0.40;;;10.30;99.90;;;;;;5092839;28;20437;-67
2024/01/25 04:05:41;;;;;;;1.90;0.50;;;10.30;99.90;;;;;;5093586;28;20434;-67
2024/01/25 04:08:08;;;;;;;1.60;0.40;;;10.30;99.90;;;;;;5084794;28;20429;-67
2024/01/25 04:10:35;;;;;;;2.80;0.50;;;10.30;99.90;;;;;;5089838;28;20945;-66
2024/01/25 04:13:04;;;;;;;2.70;0.50;;;10.30;1.00;;;;;;5092420;28;20441;-67
2024/01/25 04:15:31;;;;;;;2.30;0.50;;;10.20;1.00;;;;;;5089401;28;20442;-67
2024/01/25 04:17:58;;;;;;;4.00;0.50;;;10.30;1.00;;;;;;5092044;28;20433;-67
2024/01/25 04:20:25;;;;;;;4.00;0.40;;;10.30;1.00;;;;;;5093573;28;20463;-68
2024/01/25 04:22:54;;;;;;;2.60;0.40;;;10.40;99.90;;;;;;5093371;28;20512;-67
2024/01/25 04:25:21;;;;;;;2.60;0.50;;;10.50;1.00;;;;;;5088278;28;20746;-65
2024/01/25 04:27:48;;;;;;;2.78;0.50;;;10.40;99.90;;;;;;5092339;28;20437;-65
2024/01/25 04:30:16;;;;;;;3.33;0.60;;;10.30;1.00;;;;;;5084690;28;20442;-66
2024/01/25 04:32:43;;;;;;;1.30;0.50;;;10.20;1.00;;;;;;5092085;28;20429;-65
2024/01/25 04:35:10;;;;;;;4.00;0.50;;;10.20;99.90;;;;;;5080343;28;20441;-65
2024/01/25 04:37:37;;;;;;;3.53;0.40;;;10.20;99.90;;;;;;5092626;28;20433;-65
2024/01/25 04:40:07;;;;;;;1.65;0.47;;;10.10;99.90;;;;;;5088303;28;20441;-65
2024/01/25 04:42:34;;;;;;;3.10;0.50;;;10.10;1.00;;;;;;5088481;28;20859;-65
2024/01/25 04:45:02;;;;;;;2.58;0.43;;;10.10;1.00;;;;;;5088054;28;20846;-65
2024/01/25 04:47:29;;;;;;;2.38;0.50;;;10.20;1.00;;;;;;5092767;28;20438;-66
2024/01/25 04:49:56;;;;;;;3.00;0.60;;;10.20;1.00;;;;;;5091261;28;20824;-64
2024/01/25 04:52:23;;;;;;;2.95;0.50;;;10.20;99.90;;;;;;5092199;28;20438;-67
2024/01/25 04:54:50;;;;;;;2.80;0.43;;;10.20;25.50;;;;;;5091807;28;20442;-65
2024/01/25 04:57:18;;;;;;;2.93;0.50;;;10.20;1.00;;;;;;5086567;28;20440;-65
2024/01/25 04:59:45;;;;;;;1.83;0.40;;;10.20;1.00;;;;;;5092935;28;20434;-65
2024/01/25 05:02:12;;;;;;;3.60;0.40;;;10.20;1.00;;;;;;5092269;28;20478;-65
2024/01/25 05:04:39;;;;;;;2.30;0.50;;;10.10;99.90;;;;;;5088886;28;20444;-65
2024/01/25 05:07:06;;;;;;;3.33;0.50;;;10.00;1.00;;;;;;5091180;28;20438;-65
2024/01/25 05:09:33;;;;;;;1.60;0.40;;;9.90;1.00;;;;;;5085330;28;20435;-65
2024/01/25 05:12:02;;;;;;;2.78;0.50;;;9.90;1.00;;;;;;5089514;28;21629;-65
2024/01/25 05:14:30;;;;;;;3.78;0.40;;;9.90;99.90;;;;;;5082867;28;20432;-65
2024/01/25 05:16:57;;;;;;;3.33;0.40;;;9.90;1.00;;;;;;5081286;28;20858;-65
2024/01/25 05:19:25;;;;;;;1.20;0.40;;;9.80;1.00;;;;;;5090281;28;20446;-65
2024/01/25 05:21:52;;;;;;;2.88;0.60;;;9.70;99.90;;;;;;5088615;28;20434;-65
2024/01/25 05:24:19;;;;;;;2.55;0.50;;;9.70;99.90;;;;;;5087736;28;20437;-65
2024/01/25 05:26:46;;;;;;;7.05;0.50;;;9.70;99.90;;;;;;5087813;28;20804;-64
2024/01/25 05:29:13;;;;;;;2.85;0.40;;;9.70;57.20;;;;;;5091394;28;20421;-65
2024/01/25 05:31:41;;;;;;;2.00;0.40;;;9.60;99.90;;;;;;5087666;28;20438;-66
2024/01/25 05:34:08;;;;;;;2.35;0.40;;;9.50;99.90;;;;;;5093494;28;20429;-65
2024/01/25 05:36:35;;;;;;;1.92;0.40;;;9.40;1.00;;;;;;5084903;28;20447;-66
2024/01/25 05:39:06;;;;;;;3.67;0.40;;;9.40;1.00;;;;;;5077182;28;20439;-66
2024/01/25 05:41:33;;;;;;;3.88;0.50;;;9.40;99.90;;;;;;5087431;28;20797;-65
2024/01/25 05:44:01;;;;;;;2.83;0.50;;;9.40;99.90;;;;;;5084006;28;20486;-65
2024/01/25 05:46:28;;;;;;;3.60;0.50;;;9.30;1.00;;;;;;5092379;28;20431;-65
2024/01/25 05:48:56;;;;;;;2.45;0.60;;;9.30;1.00;;;;;;5085618;28;20697;-65
2024/01/25 05:51:23;;;;;;;4.80;0.50;;;9.30;99.90;;;;;;5088050;28;20433;-65
2024/01/25 05:53:50;;;;;;;2.60;0.50;;;9.20;1.00;;;;;;5088096;28;20504;-65
2024/01/25 05:56:17;;;;;;;4.50;0.50;;;9.20;1.00;;;;;;5089565;28;20546;-66
2024/01/25 05:58:44;;;;;;;4.20;0.57;;;9.20;99.90;;;;;;5087789;28;21051;-65
2024/01/25 06:01:11;;;;;;;2.97;0.40;;;9.10;1.00;;;;;;5089513;28;20435;-67
2024/01/25 06:03:38;;;;;;;3.72;0.60;;;9.20;99.90;;;;;;5082630;28;20831;-65
2024/01/25 06:06:08;;;;;;;4.45;0.50;;;9.30;1.00;;;;;;5093217;28;20452;-65
2024/01/25 06:08:35;;;;;;;3.10;0.50;;;9.20;1.00;;;;;;5083664;28;21038;-66
2024/01/25 06:11:02;;;;;;;5.57;0.60;;;9.10;1.00;;;;;;5088557;28;20524;-66
2024/01/25 06:13:29;;;;;;;3.00;0.50;;;9.10;1.00;;;;;;5091003;28;20851;-67
2024/01/25 06:15:57;;;;;;;3.75;0.60;;;9.10;99.90;;;;;;5091395;28;20446;-66
2024/01/25 06:18:24;;;;;;;3.00;0.45;;;9.20;99.90;;;;;;5091728;28;20436;-66
2024/01/25 06:20:51;;;;;;;3.63;0.70;;;9.10;1.00;;;;;;5090248;28;20429;-66
2024/01/25 06:23:20;;;;;;;4.40;0.50;;;9.00;1.00;;;;;;5079690;28;20808;-66
2024/01/25 06:25:47;;;;;;;2.35;0.50;;;8.90;99.90;;;;;;5095166;28;20430;-64
2024/01/25 06:28:14;;;;;;;3.30;0.50;;;8.90;99.90;;;;;;5086715;28;20439;-65
2024/01/25 06:30:41;;;;;;;4.40;0.60;;;8.80;99.90;;;;;;5086050;28;20440;-67
2024/01/25 06:33:08;;;;;;;2.45;0.60;;;8.80;1.00;;;;;;5088036;28;20486;-65
2024/01/25 06:35:35;;;;;;;2.70;0.50;;;8.90;1.00;;;;;;5085522;28;20433;-67
2024/01/25 06:38:02;;;;;;;1.50;0.50;;;8.90;99.90;;;;;;5088075;28;21166;-64
2024/01/25 06:40:30;;;;;;;2.58;0.40;;;8.90;99.90;;;;;;5088692;28;20433;-63
2024/01/25 06:42:57;;;;;;;3.35;0.57;;;9.00;1.00;;;;;;5089738;28;20438;-64
2024/01/25 06:45:24;;;;;;;5.10;0.57;;;9.00;99.90;;;;;;5078400;28;20498;-63
2024/01/25 06:47:51;;;;;;;3.22;0.55;;;8.90;99.90;;;;;;5088371;28;20475;-63
2024/01/25 06:50:18;;;;;;;3.00;0.60;;;9.00;1.00;;;;;;5093384;28;20456;-63
2024/01/25 06:52:45;;;;;;;4.47;0.40;;;9.20;1.00;;;;;;5084993;28;20445;-63
2024/01/25 06:55:12;;;;;;;1.65;0.52;;;9.20;99.90;;;;;;5092393;28;20438;-64
2024/01/25 06:57:43;;;;;;;3.20;0.50;;;9.30;99.90;;;;;;5091093;28;20429;-64
2024/01/25 07:00:15;;;;;;;3.70;0.60;;;9.30;99.90;;;;;;5091673;28;20434;-63
2024/01/25 07:02:42;;;;;;;2.63;0.60;;;9.20;1.00;;;;;;5084319;28;20742;-64
2024/01/25 07:05:09;;;;;;;5.65;0.70;;;9.30;99.90;;;;;;5092205;28;20839;-64
2024/01/25 07:07:38;;;;;;;2.15;0.50;;;9.20;31.50;;;;;;5079408;28;20438;-64
2024/01/25 07:10:06;;;;;;;4.30;0.50;;;9.20;1.00;;;;;;5086563;28;20465;-64
2024/01/25 07:12:33;;;;;;;3.95;0.50;;;9.20;99.90;;;;;;5090294;28;20560;-64
2024/01/25 07:15:01;;;;;;;3.27;0.50;;;9.20;1.00;;;;;;5091765;28;20430;-64
2024/01/25 07:17:29;;;;;;;3.00;0.50;;;9.20;99.90;;;;;;5084824;28;20438;-65
2024/01/25 07:19:56;;;;;;;1.95;0.50;;;9.10;99.90;;;;;;5087087;28;20435;-62
2024/01/25 07:22:23;;;;;;;5.00;0.77;;;9.10;1.00;;;;;;5081944;28;20449;-62
2024/01/25 07:24:50;;;;;;;1.75;0.50;;;9.00;99.90;;;;;;5086162;28;20839;-62
2024/01/25 07:27:17;;;;;;;3.60;0.60;;;8.90;1.00;;;;;;5085591;28;20446;-62
2024/01/25 07:29:47;;;;;;;3.25;0.60;;;8.90;18.50;;;;;;5090205;28;20606;-64
2024/01/25 07:32:16;;;;;;;2.92;0.60;;;8.90;1.00;;;;;;5080440;28;20433;-67
2024/01/25 07:34:43;;;;;;;6.43;0.50;;;8.90;1.00;;;;;;5089080;28;20925;-65
2024/01/25 07:37:11;;;;;;;1.40;0.50;;;8.80;1.00;;;;;;5088778;28;20438;-57
2024/01/25 07:39:38;;;;;;;4.63;0.60;;;8.70;1.00;;;;;;5078586;28;21031;-60
2024/01/25 07:42:05;;;;;;;5.80;0.50;;;8.80;99.90;;;;;;5077167;28;20435;-60
2024/01/25 07:44:33;;;;;;;5.82;0.60;;;8.80;1.00;;;;;;5083282;28;20432;-61
2024/01/25 07:47:00;;;;;;;4.80;0.60;;;8.90;99.90;;;;;;5080054;28;21047;-61
2024/01/25 07:49:29;;;;;;;5.28;0.60;;;9.00;26.90;;;;;;5082581;28;20667;-61
2024/01/25 07:51:57;;;;;;;2.60;0.60;;;9.20;1.00;;;;;;5082239;28;20479;-62
2024/01/25 07:54:25;;;;;;;3.80;0.50;;;9.10;1.00;;;;;;5087357;28;20449;-61
2024/01/25 07:56:52;;;;;;;3.42;0.50;;;9.00;1.00;;;;;;5086201;28;20438;-60
2024/01/25 07:59:19;;;;;;;4.50;0.60;;;9.00;1.00;;;;;;5079087;28;20447;-60
2024/01/25 08:01:46;;;;;;;5.53;0.60;;;9.10;1.00;;;;;;5081663;28;20680;-60
2024/01/25 08:04:13;;;;;;;4.00;0.50;;;9.20;99.90;;;;;;5084789;28;20854;-60
2024/01/25 08:06:41;;;;;;;3.72;0.60;;;9.20;1.00;;;;;;5084893;28;20428;-60
2024/01/25 08:09:12;;;;;;;2.50;0.40;;;9.40;1.00;;;;;;5080355;28;20536;-61
2024/01/25 08:11:40;;;;;;;2.43;0.50;;;9.50;99.90;;;;;;5087852;28;20455;-61
2024/01/25 08:14:07;;;;;;;3.50;0.60;;;9.40;1.00;;;;;;5087347;28;20433;-60
2024/01/25 08:19:55;;;;;;;1.92;0.57;;;9.70;1.00;;;;;;5075901;28;20391;-66
2024/01/25 08:22:24;;;;;;;2.63;0.50;;;9.60;47.00;;;;;;5086406;28;20506;-62
2024/01/25 08:24:51;;;;;;;6.13;0.63;;;9.70;99.90;;;;;;5085737;28;20923;-61
2024/01/25 08:27:18;;;;;;;3.38;0.60;;;9.60;1.00;;;;;;5081955;28;20425;-61
2024/01/25 08:29:46;;;;;;;4.65;0.60;;;9.40;1.00;;;;;;5076997;28;20435;-60
2024/01/25 08:32:13;;;;;;;3.90;0.60;;;9.40;1.00;;;;;;5082175;28;20507;-60
2024/01/25 08:34:40;;;;;;;3.83;0.60;;;9.20;99.90;;;;;;5082155;28;20449;-62
2024/01/25 08:37:08;;;;;;;3.38;0.57;;;9.00;1.00;;;;;;5073674;28;21082;-61
2024/01/25 08:39:36;;;;;;;4.25;0.50;;;9.00;1.00;;;;;;5078432;28;20439;-59
2024/01/25 08:42:06;;;;;;;2.80;0.60;;;9.00;57.20;;;;;;5085066;28;20921;-60
2024/01/25 08:44:33;;;;;;;3.40;0.60;;;9.00;1.00;;;;;;5086460;28;21110;-60
2024/01/25 08:47:00;;;;;;;2.80;0.60;;;9.10;1.00;;;;;;5084292;28;20503;-60
2024/01/25 08:49:27;;;;;;;2.55;0.50;;;9.10;1.00;;;;;;5083451;28;20723;-60
2024/01/25 08:51:55;;;;;;;6.45;0.60;;;9.20;1.00;;;;;;5086904;28;20828;-60
2024/01/25 08:54:22;;;;;;;7.30;0.50;;;9.30;1.00;;;;;;5084664;28;20430;-60
2024/01/25 08:56:50;;;;;;;4.47;0.70;;;9.30;99.90;;;;;;5086857;28;20417;-61
2024/01/25 08:59:17;;;;;;;2.63;0.60;;;9.20;99.90;;;;;;5080188;28;20439;-60
2024/01/25 09:01:44;;;;;;;2.97;0.50;;;9.10;1.00;;;;;;5082414;28;20444;-60
2024/01/25 09:04:11;;;;;;;4.68;0.50;;;9.10;99.90;;;;;;5084822;28;20785;-60
2024/01/25 09:06:38;;;;;;;3.80;0.60;;;9.20;1.00;;;;;;5070210;28;20963;-60
2024/01/25 09:09:05;;;;;;;2.70;0.50;;;9.20;99.90;;;;;;5080358;28;20442;-60
2024/01/25 09:11:32;;;;;;;1.75;0.40;;;9.40;99.90;;;;;;5084138;28;20430;-60
2024/01/25 09:14:01;;;;;;;2.63;0.50;;;9.70;1.00;;;;;;5085361;28;20438;-60
2024/01/25 09:16:28;;;;;;;4.13;0.50;;;9.80;99.90;;;;;;5087430;28;20426;-60
2024/01/25 09:18:55;;;;;;;1.97;0.50;;;10.10;1.00;;;;;;5086227;28;20927;-60
2024/01/25 09:21:22;;;;;;;4.37;0.50;;;10.20;99.90;;;;;;5087907;28;20426;-60
2024/01/25 09:23:49;;;;;;;2.90;0.50;;;10.10;1.00;;;;;;5087247;28;20448;-60
2024/01/25 09:26:16;;;;;;;3.13;0.50;;;9.90;1.00;;;;;;5090273;28;20445;-60
2024/01/25 09:28:43;;;;;;;1.88;0.40;;;9.90;1.00;;;;;;5087594;28;20443;-60
2024/01/25 09:31:12;;;;;;;3.30;0.50;;;9.90;99.90;;;;;;5097074;28;20441;-60
2024/01/25 09:33:39;;;;;;;1.80;0.40;;;9.90;1.00;;;;;;5083920;28;20431;-60
2024/01/25 09:36:09;;;;;;;3.20;0.50;;;10.00;1.00;;;;;;5083583;28;20651;-60
2024/01/25 09:38:38;;;;;;;3.93;0.50;;;10.10;7.10;;;;;;5085977;28;20483;-60
2024/01/25 09:41:09;;;;;;;2.42;0.50;;;10.10;1.00;;;;;;5087987;28;20463;-61
2024/01/25 09:43:37;;;;;;;4.45;0.57;;;10.00;1.00;;;;;;5082998;28;20890;-60
2024/01/25 09:46:12;;;;;;;7.03;0.70;;;10.00;1.00;;;;;;5085955;28;20444;-62
2024/01/25 09:48:43;;;;;;;3.05;0.50;;;10.10;1.00;;;;;;5035945;28;21112;-61
2024/01/25 09:51:12;;;;;;;2.03;0.45;;;10.30;1.00;;;;;;5045247;28;20428;-59
2024/01/25 09:53:41;;;;;;;1.80;0.50;;;10.60;1.00;;;;;;5047487;28;20441;-59
2024/01/25 09:56:10;;;;;;;2.70;0.60;;;10.70;1.00;;;;;;5047783;28;20525;-58
2024/01/25 09:58:42;;;;;;;2.10;0.50;;;10.70;1.00;;;;;;5041230;28;20465;-61
2024/01/25 10:01:11;;;;;;;2.30;0.50;;;10.90;1.00;;;;;;5038031;28;20520;-61
2024/01/25 10:03:39;;;;;;;4.63;0.50;;;11.00;1.00;;;;;;5041385;28;20437;-61
2024/01/25 10:06:08;;;;;;;4.38;0.60;;;11.20;1.00;;;;;;5042400;28;20452;-61
2024/01/25 10:08:35;;;;;;;3.23;0.43;;;11.20;99.90;;;;;;5044597;28;20475;-61
2024/01/25 10:11:03;;;;;;;1.17;0.40;;;11.20;99.90;;;;;;5045086;28;21002;-61
2024/01/25 10:13:30;;;;;;;3.15;0.40;;;11.20;99.90;;;;;;5045092;28;20448;-61
2024/01/25 10:15:58;;;;;;;1.90;0.40;;;11.20;99.90;;;;;;5050146;28;20422;-60
2024/01/25 10:18:26;;;;;;;1.70;0.47;;;11.20;99.90;;;;;;5042096;28;20441;-60
2024/01/25 10:20:54;;;;;;;3.17;0.50;;;11.20;99.90;;;;;;5042544;28;20432;-60
2024/01/25 10:23:23;;;;;;;4.07;0.50;;;11.40;99.90;;;;;;5043080;28;20843;-60
2024/01/25 10:25:50;;;;;;;3.72;0.43;;;11.30;99.90;;;;;;5045329;28;20437;-62
2024/01/25 10:28:18;;;;;;;3.03;0.40;;;11.20;99.90;;;;;;5045762;28;20719;-60
2024/01/25 10:30:45;;;;;;;1.95;0.47;;;11.30;99.90;;;;;;5043021;28;20429;-60
2024/01/25 10:33:13;;;;;;;3.50;0.70;;;11.40;99.90;;;;;;5045785;28;20529;-60
2024/01/25 10:35:41;;;;;;;2.47;0.60;;;11.40;99.90;;;;;;5047099;28;20848;-61
2024/01/25 10:38:09;;;;;;;2.00;0.50;;;11.50;99.90;;;;;;5040336;28;20447;-61
2024/01/25 10:40:39;;;;;;;3.10;0.50;;;11.70;99.90;;;;;;5048790;28;20485;-61
2024/01/25 10:43:06;;;;;;;2.97;0.50;;;11.80;99.90;;;;;;5052437;28;20421;-61
2024/01/25 10:45:33;;;;;;;2.40;0.50;;;11.90;99.90;;;;;;5052002;28;20434;-61
2024/01/25 10:48:00;;;;;;;1.20;0.50;;;11.90;99.90;;;;;;5079065;28;20510;-61
2024/01/25 10:50:27;;;;;;;2.60;0.40;;;11.80;99.90;;;;;;5082299;28;20496;-61
2024/01/25 10:52:55;;;;;;;2.40;0.45;;;11.80;99.90;;;;;;5079221;28;20439;-61
2024/01/25 10:55:23;;;;;;;2.10;0.40;;;11.80;99.90;;;;;;5086716;28;20422;-62
2024/01/25 10:57:53;;;;;;;3.92;0.45;;;12.00;99.90;;;;;;5090892;28;20414;-60
2024/01/25 11:00:22;;;;;;;2.10;0.40;;;11.80;99.90;;;;;;5083780;28;20438;-61
2024/01/25 11:02:51;;;;;;;1.80;0.40;;;11.80;99.90;;;;;;5078149;28;20423;-61
2024/01/25 11:05:19;;;;;;;2.17;0.40;;;11.80;99.90;;;;;;5092494;28;20925;-61
2024/01/25 11:07:47;;;;;;;3.58;0.50;;;11.80;99.90;;;;;;5089810;28;20440;-61
2024/01/25 11:10:18;;;;;;;2.47;0.52;;;12.00;99.90;;;;;;5084272;28;20418;-61
2024/01/25 11:12:56;;;;;;;2.35;0.50;;;12.00;99.90;;;;;;5080717;28;20431;-61
2024/01/25 11:15:25;;;;;;;1.95;0.50;;;12.20;99.90;;;;;;5087760;28;20422;-62
2024/01/25 11:17:54;;;;;;;3.10;0.50;;;12.20;99.90;;;;;;5082827;28;20437;-60
2024/01/25 11:20:24;;;;;;;2.63;0.40;;;12.30;99.90;;;;;;5081357;28;20424;-64
2024/01/25 11:22:57;;;;;;;1.15;0.40;;;12.10;99.90;;;;;;5080993;28;20421;-64
2024/01/25 11:25:27;;;;;;;2.33;0.50;;;12.10;99.90;;;;;;5084433;28;20479;-64
2024/01/25 11:27:56;;;;;;;2.10;0.40;;;12.10;93.70;;;;;;5079004;28;20562;-64
2024/01/25 11:30:23;;;;;;;2.50;0.40;;;12.10;89.10;;;;;;5089792;28;20418;-64
2024/01/25 11:32:50;;;;;;;2.13;0.40;;;12.10;37.60;;;;;;5080407;28;20989;-64
2024/01/25 11:35:18;;;;;;;2.47;0.40;;;11.90;35.50;;;;;;5077023;28;20475;-60
2024/01/25 11:37:46;;;;;;;2.00;0.40;;;11.90;42.60;;;;;;5081004;28;20474;-60
2024/01/25 11:40:14;;;;;;;3.00;0.40;;;12.20;49.10;;;;;;5076230;28;20524;-60
2024/01/25 11:42:43;;;;;;;1.50;0.40;;;12.20;6.70;;;;;;5081101;28;20421;-60
2024/01/25 11:45:12;;;;;;;1.52;0.40;;;11.90;8.50;;;;;;5077995;28;20807;-60
2024/01/25 11:47:40;;;;;;;1.70;0.40;;;11.90;19.80;;;;;;5076409;28;20435;-60
2024/01/25 11:50:10;;;;;;;2.72;0.50;;;11.80;20.40;;;;;;5081302;28;20978;-60
2024/01/25 11:52:37;;;;;;;2.15;0.40;;;12.10;40.60;;;;;;5072530;28;20439;-60
2024/01/25 11:55:06;;;;;;;2.63;0.50;;;12.10;5.00;;;;;;5072804;28;20438;-60
2024/01/25 11:57:35;;;;;;;1.20;0.40;;;12.20;13.50;;;;;;5080812;28;20414;-60
2024/01/25 12:00:04;;;;;;;1.98;0.30;;;12.20;16.90;;;;;;5074506;28;20422;-60
2024/01/25 12:02:33;;;;;;;3.08;0.40;;;12.30;13.30;;;;;;5073872;28;20447;-60
2024/01/25 12:05:00;;;;;;;2.17;0.40;;;12.50;1.00;;;;;;5077348;28;20489;-60
2024/01/25 12:07:27;;;;;;;2.92;0.40;;;12.70;1.40;;;;;;5076499;28;20431;-60
2024/01/25 12:10:00;;;;;;;0.80;0.40;;;12.80;1.00;;;;;;5072968;28;20423;-60
2024/01/25 12:12:28;;;;;;;2.55;0.50;;;12.60;1.00;;;;;;5081865;28;20487;-60
2024/01/25 12:15:00;;;;;;;1.77;0.40;;;12.60;1.00;;;;;;5075567;28;20431;-62
2024/01/25 12:17:29;;;;;;;1.23;0.40;;;12.60;1.00;;;;;;5071299;28;21024;-62
2024/01/25 12:19:58;;;;;;;3.00;0.50;;;12.60;1.00;;;;;;5077757;28;20431;-62
2024/01/25 12:22:25;;;;;;;2.53;0.50;;;12.50;1.00;;;;;;5078301;28;20429;-62
2024/01/25 12:24:54;;;;;;;1.95;0.40;;;12.50;1.00;;;;;;5079522;28;20495;-61
2024/01/25 12:27:22;;;;;;;1.45;0.30;;;12.40;2.50;;;;;;5075195;28;20415;-62
2024/01/25 12:29:49;;;;;;;2.30;0.47;;;12.50;20.20;;;;;;5079190;28;20429;-62
2024/01/25 12:32:16;;;;;;;4.47;0.47;;;12.60;25.50;;;;;;5087529;28;20434;-61
2024/01/25 12:34:43;;;;;;;3.60;0.50;;;12.70;24.90;;;;;;5075091;28;20434;-61
2024/01/25 12:37:12;;;;;;;2.75;0.40;;;12.60;24.90;;;;;;5070886;28;20423;-62
2024/01/25 12:39:39;;;;;;;2.05;0.40;;;12.50;29.90;;;;;;5086844;28;20425;-62
2024/01/25 12:42:06;;;;;;;2.17;0.40;;;12.60;19.70;;;;;;5081614;28;20472;-62
2024/01/25 12:44:33;;;;;;;1.20;0.40;;;12.50;20.40;;;;;;5080023;28;20441;-61
2024/01/25 12:47:02;;;;;;;3.10;0.40;;;12.40;19.50;;;;;;5084731;28;20673;-61
2024/01/25 12:49:29;;;;;;;1.90;0.40;;;12.30;19.10;;;;;;5087473;28;20436;-61
2024/01/25 12:51:57;;;;;;;2.50;0.40;;;12.40;21.50;;;;;;5085331;28;20525;-61
2024/01/25 12:54:25;;;;;;;1.45;0.40;;;12.50;20.20;;;;;;5080165;28;20570;-61
2024/01/25 12:56:52;;;;;;;5.18;0.40;;;12.60;15.40;;;;;;5085868;28;20449;-61
2024/01/25 12:59:19;;;;;;;1.83;0.32;;;12.60;4.00;;;;;;5085269;28;20441;-61
2024/01/25 13:01:46;;;;;;;4.53;0.50;;;12.60;10.40;;;;;;5079768;28;20964;-62